Time;durP1;ratioP1;P1;durP2;ratioP2;P2;SDS_P1;SDS_P2;PMS_P1;PMS_P2;Temp;Humidity;BMP_temperature;BMP_pressure;BME280_temperature;BME280_humidity;BME280_pressure;Samples;Min_cycle;Max_cycle;Signal;HPM_P1;HPM_P2
2022/08/20 00:00:47;;;;;;;15.77;5.70;;;17.50;99.90;;;;;;5055009;28;20389;-61
2022/08/20 00:03:37;;;;;;;18.83;5.97;;;17.50;99.90;;;;;;5054550;28;20029;-61
2022/08/20 00:06:10;;;;;;;15.32;6.28;;;17.50;99.90;;;;;;5054785;28;20029;-61
2022/08/20 00:08:37;;;;;;;16.42;6.20;;;17.50;99.90;;;;;;5055027;28;20025;-62
2022/08/20 00:11:06;;;;;;;12.88;6.15;;;17.50;99.90;;;;;;5054619;28;20031;-61
2022/08/20 00:13:37;;;;;;;17.65;6.30;;;17.50;99.90;;;;;;5054575;28;20079;-60
2022/08/20 00:16:05;;;;;;;15.15;6.47;;;17.50;99.90;;;;;;5054441;28;20029;-62
2022/08/20 00:18:30;;;;;;;17.30;6.22;;;17.50;99.90;;;;;;5054774;28;20025;-61
2022/08/20 00:20:57;;;;;;;15.90;6.65;;;17.50;99.90;;;;;;5054709;28;20546;-61
2022/08/20 00:23:23;;;;;;;15.63;6.10;;;17.50;99.90;;;;;;5054273;28;20033;-62
2022/08/20 00:25:51;;;;;;;10.50;5.50;;;17.60;99.90;;;;;;5054257;28;20074;-61
2022/08/20 00:28:16;;;;;;;13.55;5.85;;;17.70;99.90;;;;;;5054714;28;20031;-61
2022/08/20 00:30:44;;;;;;;16.08;5.90;;;17.70;99.90;;;;;;5054209;28;20428;-61
2022/08/20 00:33:13;;;;;;;10.95;5.13;;;17.60;99.90;;;;;;5054222;28;20033;-60
2022/08/20 00:35:42;;;;;;;16.20;5.43;;;17.60;99.90;;;;;;5052967;28;20029;-60
2022/08/20 00:38:07;;;;;;;18.10;5.38;;;17.50;99.90;;;;;;5054318;28;20044;-60
2022/08/20 00:40:43;;;;;;;12.85;5.50;;;17.50;99.90;;;;;;5054105;28;20025;-62
2022/08/20 00:43:36;;;;;;;13.57;5.28;;;17.50;99.90;;;;;;5053869;28;20043;-60
2022/08/20 00:46:07;;;;;;;11.10;5.22;;;17.50;99.90;;;;;;5054184;28;20021;-61
2022/08/20 00:48:36;;;;;;;9.52;4.97;;;17.50;99.90;;;;;;5054340;28;20037;-62
2022/08/20 00:51:10;;;;;;;12.20;4.85;;;17.50;99.90;;;;;;5054200;28;20033;-61
2022/08/20 00:53:37;;;;;;;16.48;5.35;;;17.40;99.90;;;;;;5053957;28;20047;-61
2022/08/20 00:56:05;;;;;;;14.70;5.22;;;17.40;99.90;;;;;;5053763;28;20044;-62
2022/08/20 00:58:32;;;;;;;14.02;4.95;;;17.30;99.90;;;;;;5053909;28;20048;-61
2022/08/20 01:00:58;;;;;;;12.07;5.57;;;17.30;99.90;;;;;;5054217;28;20449;-61
2022/08/20 01:03:24;;;;;;;15.32;5.47;;;17.20;99.90;;;;;;5054209;28;20036;-61
2022/08/20 01:05:51;;;;;;;13.07;5.18;;;17.10;99.90;;;;;;5054025;28;20029;-62
2022/08/20 01:08:19;;;;;;;13.57;5.35;;;17.10;99.90;;;;;;5054112;28;20371;-60
2022/08/20 01:10:47;;;;;;;16.05;5.88;;;17.00;99.90;;;;;;5053582;28;20025;-61
2022/08/20 01:13:17;;;;;;;10.30;5.43;;;16.90;99.90;;;;;;5053496;28;20079;-62
2022/08/20 01:15:46;;;;;;;17.27;5.72;;;16.90;99.90;;;;;;5053831;28;20025;-61
2022/08/20 01:18:16;;;;;;;17.75;6.03;;;16.90;99.90;;;;;;5053731;28;20452;-61
2022/08/20 01:20:48;;;;;;;15.18;6.22;;;16.80;99.90;;;;;;5053707;28;20509;-61
2022/08/20 01:23:25;;;;;;;18.50;6.18;;;16.70;99.90;;;;;;5053350;28;20111;-61
2022/08/20 01:26:01;;;;;;;18.55;6.15;;;16.60;99.90;;;;;;5053301;28;20033;-61
2022/08/20 01:28:46;;;;;;;18.38;6.13;;;16.60;99.90;;;;;;5053614;28;20430;-60
2022/08/20 01:31:15;;;;;;;17.42;6.15;;;16.50;99.90;;;;;;5053263;28;20397;-61
2022/08/20 01:33:41;;;;;;;21.63;6.78;;;16.50;99.90;;;;;;5053284;28;20029;-60
2022/08/20 01:36:08;;;;;;;16.73;6.55;;;16.40;99.90;;;;;;5053091;28;20031;-61
2022/08/20 01:38:34;;;;;;;13.35;6.55;;;16.40;99.90;;;;;;5051995;28;20021;-61
2022/08/20 01:41:09;;;;;;;22.33;7.03;;;16.40;99.90;;;;;;5053142;28;20108;-61
2022/08/20 01:43:35;;;;;;;14.18;7.03;;;16.40;99.90;;;;;;5053326;28;20056;-61
2022/08/20 01:46:00;;;;;;;23.42;7.18;;;16.30;99.90;;;;;;5053013;28;20305;-61
2022/08/20 01:48:27;;;;;;;18.38;7.25;;;16.30;99.90;;;;;;5053032;28;20111;-61
2022/08/20 01:51:12;;;;;;;18.02;7.03;;;16.30;99.90;;;;;;5052866;28;20433;-61
2022/08/20 01:53:43;;;;;;;15.80;7.47;;;16.30;99.90;;;;;;5052818;28;20029;-60
2022/08/20 01:56:13;;;;;;;22.15;7.72;;;16.30;99.90;;;;;;5053000;28;20025;-60
2022/08/20 01:58:41;;;;;;;18.05;7.45;;;16.20;99.90;;;;;;5053468;28;20543;-60
2022/08/20 02:01:16;;;;;;;24.83;7.72;;;16.20;99.90;;;;;;5052811;28;20025;-60
2022/08/20 02:03:43;;;;;;;14.65;7.18;;;16.20;99.90;;;;;;5051964;28;20374;-60
2022/08/20 02:06:09;;;;;;;21.60;7.88;;;16.20;99.90;;;;;;5052506;28;20031;-60
2022/08/20 02:08:34;;;;;;;17.02;8.15;;;16.10;99.90;;;;;;5051318;28;20036;-60
2022/08/20 02:11:01;;;;;;;23.60;8.27;;;16.10;99.90;;;;;;5052291;28;20386;-60
2022/08/20 02:13:26;;;;;;;14.85;7.82;;;16.00;99.90;;;;;;5052238;28;20029;-60
2022/08/20 02:15:52;;;;;;;16.77;8.13;;;16.10;99.90;;;;;;5052179;28;20027;-60
2022/08/20 02:18:19;;;;;;;20.17;8.75;;;16.00;99.90;;;;;;5052463;28;20118;-60
2022/08/20 02:20:47;;;;;;;20.73;8.60;;;16.00;99.90;;;;;;5052425;28;20136;-60
2022/08/20 02:23:14;;;;;;;18.27;7.90;;;15.90;99.90;;;;;;5052075;28;20040;-61
2022/08/20 02:25:42;;;;;;;19.40;8.15;;;15.90;99.90;;;;;;5052435;28;20044;-60
2022/08/20 02:28:10;;;;;;;22.70;9.25;;;15.90;99.90;;;;;;5052203;28;20040;-60
2022/08/20 02:30:41;;;;;;;25.05;9.10;;;15.90;99.90;;;;;;5051779;28;20025;-61
2022/08/20 02:33:09;;;;;;;19.17;8.77;;;15.90;99.90;;;;;;5052239;28;20037;-61
2022/08/20 02:35:36;;;;;;;18.48;8.73;;;15.90;99.90;;;;;;5052145;28;20079;-61
2022/08/20 02:38:02;;;;;;;25.80;9.60;;;15.90;99.90;;;;;;5051819;28;20068;-60
2022/08/20 02:40:29;;;;;;;22.58;8.35;;;15.90;99.90;;;;;;5051680;28;20056;-61
2022/08/20 02:42:55;;;;;;;21.52;8.90;;;15.80;99.90;;;;;;5051689;28;20040;-61
2022/08/20 02:45:21;;;;;;;26.55;9.25;;;15.70;99.90;;;;;;5051818;28;20021;-60
2022/08/20 02:47:49;;;;;;;22.95;9.00;;;15.70;99.90;;;;;;5051661;28;20028;-60
2022/08/20 02:50:18;;;;;;;21.70;9.73;;;15.70;99.90;;;;;;5052262;28;20025;-61
2022/08/20 02:52:44;;;;;;;23.38;9.07;;;15.70;99.90;;;;;;5051997;28;20448;-61
2022/08/20 02:55:11;;;;;;;26.33;9.18;;;15.70;99.90;;;;;;5051832;28;20094;-60
2022/08/20 02:57:37;;;;;;;21.60;8.95;;;15.70;99.90;;;;;;5051635;28;20808;-61
2022/08/20 03:00:19;;;;;;;27.27;9.48;;;15.60;99.90;;;;;;5052207;28;20049;-61
2022/08/20 03:02:45;;;;;;;19.15;9.15;;;15.70;99.90;;;;;;5051190;28;20358;-61
2022/08/20 03:05:12;;;;;;;20.65;8.80;;;15.70;99.90;;;;;;5051273;28;20056;-62
2022/08/20 03:07:47;;;;;;;21.52;9.27;;;15.70;99.90;;;;;;5051312;28;20072;-61
2022/08/20 03:10:13;;;;;;;22.60;9.20;;;15.60;99.90;;;;;;5051477;28;20046;-61
2022/08/20 03:12:40;;;;;;;22.70;8.98;;;15.60;99.90;;;;;;5051283;28;20048;-61
2022/08/20 03:15:08;;;;;;;23.10;9.73;;;15.60;99.90;;;;;;5051121;28;20552;-61
2022/08/20 03:17:35;;;;;;;21.33;9.55;;;15.50;99.90;;;;;;5050288;28;20033;-61
2022/08/20 03:20:01;;;;;;;18.60;9.68;;;15.50;99.90;;;;;;5049873;28;20040;-61
2022/08/20 03:22:27;;;;;;;18.65;9.68;;;15.50;99.90;;;;;;5051064;28;20394;-61
2022/08/20 03:24:53;;;;;;;21.35;9.05;;;15.40;99.90;;;;;;5051228;28;20029;-62
2022/08/20 03:27:19;;;;;;;16.40;8.70;;;15.40;99.90;;;;;;5051188;28;20027;-61
2022/08/20 03:29:45;;;;;;;24.75;9.85;;;15.40;99.90;;;;;;5051129;28;20021;-61
2022/08/20 03:32:10;;;;;;;24.38;9.70;;;15.40;99.90;;;;;;5050779;28;20057;-61
2022/08/20 03:34:36;;;;;;;21.70;9.70;;;15.40;99.90;;;;;;5051015;28;20477;-61
2022/08/20 03:37:01;;;;;;;19.20;9.55;;;15.30;99.90;;;;;;5050968;28;20111;-61
2022/08/20 03:39:27;;;;;;;27.60;10.20;;;15.30;99.90;;;;;;5051249;28;20550;-60
2022/08/20 03:41:53;;;;;;;27.33;10.82;;;15.30;99.90;;;;;;5051089;28;20055;-60
2022/08/20 03:44:18;;;;;;;22.10;10.35;;;15.30;99.90;;;;;;5049662;28;20540;-60
2022/08/20 03:46:44;;;;;;;22.48;9.57;;;15.30;99.90;;;;;;5051225;28;20036;-60
2022/08/20 03:49:09;;;;;;;29.27;10.20;;;15.20;99.90;;;;;;5051064;28;20031;-60
2022/08/20 03:51:35;;;;;;;22.70;10.10;;;15.20;99.90;;;;;;5050776;28;20068;-60
2022/08/20 03:54:01;;;;;;;29.90;10.77;;;15.10;99.90;;;;;;5051139;28;20448;-61
2022/08/20 03:56:27;;;;;;;24.25;10.63;;;15.00;99.90;;;;;;5050897;28;20108;-61
2022/08/20 03:58:53;;;;;;;20.90;9.63;;;15.00;99.90;;;;;;5050884;28;20045;-61
2022/08/20 04:01:19;;;;;;;22.13;9.45;;;15.00;99.90;;;;;;5049736;28;20498;-61
2022/08/20 04:03:45;;;;;;;23.35;11.18;;;15.00;99.90;;;;;;5050647;28;20105;-61
2022/08/20 04:06:11;;;;;;;23.52;11.48;;;15.00;99.90;;;;;;5050545;28;20021;-60
2022/08/20 04:08:39;;;;;;;24.70;11.20;;;15.00;99.90;;;;;;5050785;28;20033;-60
2022/08/20 04:11:04;;;;;;;24.63;10.73;;;15.00;99.90;;;;;;5050426;28;20024;-61
2022/08/20 04:13:30;;;;;;;26.98;11.20;;;15.00;99.90;;;;;;5050930;28;20037;-61
2022/08/20 04:15:56;;;;;;;26.67;11.68;;;15.00;99.90;;;;;;5051163;28;20055;-61
2022/08/20 04:18:25;;;;;;;25.90;11.15;;;15.00;99.90;;;;;;5050791;28;20056;-60
2022/08/20 04:20:52;;;;;;;25.60;11.68;;;14.90;99.90;;;;;;5051123;28;20482;-61
2022/08/20 04:23:18;;;;;;;26.30;11.93;;;15.00;99.90;;;;;;5050742;28;20029;-62
2022/08/20 04:25:45;;;;;;;23.98;10.45;;;15.00;99.90;;;;;;5050784;28;20033;-61
2022/08/20 04:28:23;;;;;;;25.38;11.02;;;14.90;99.90;;;;;;5051951;28;20031;-60
2022/08/20 04:30:51;;;;;;;27.50;11.25;;;14.90;99.90;;;;;;5054867;28;20028;-61
2022/08/20 04:33:17;;;;;;;29.17;11.93;;;14.80;99.90;;;;;;5054069;28;20029;-61
2022/08/20 04:35:43;;;;;;;25.75;11.98;;;14.90;99.90;;;;;;5054395;28;20075;-61
2022/08/20 04:38:14;;;;;;;24.85;12.13;;;14.80;99.90;;;;;;5054633;28;20033;-61
2022/08/20 04:40:59;;;;;;;22.88;11.20;;;14.80;99.90;;;;;;5054146;28;20024;-61
2022/08/20 04:43:34;;;;;;;24.77;12.13;;;14.90;99.90;;;;;;5054028;28;20033;-61
2022/08/20 04:46:08;;;;;;;23.80;10.90;;;14.90;99.90;;;;;;5052488;28;20056;-60
2022/08/20 04:48:37;;;;;;;22.65;10.70;;;14.80;99.90;;;;;;5054479;28;20427;-61
2022/08/20 04:51:04;;;;;;;26.33;11.32;;;14.70;99.90;;;;;;5053492;28;20032;-60
2022/08/20 04:53:29;;;;;;;27.58;11.05;;;14.70;99.90;;;;;;5053814;28;20041;-60
2022/08/20 04:55:59;;;;;;;26.05;11.15;;;14.70;99.90;;;;;;5053754;28;20482;-61
2022/08/20 04:58:26;;;;;;;25.00;10.85;;;14.70;99.90;;;;;;5053699;28;20048;-61
2022/08/20 05:00:57;;;;;;;23.13;11.98;;;14.80;99.90;;;;;;5053946;28;20035;-61
2022/08/20 05:03:24;;;;;;;22.38;10.45;;;14.80;99.90;;;;;;5053517;28;20123;-60
2022/08/20 05:05:51;;;;;;;28.13;10.98;;;14.80;99.90;;;;;;5053606;28;20025;-61
2022/08/20 05:08:18;;;;;;;21.15;10.45;;;14.80;99.90;;;;;;5054117;28;20033;-61
2022/08/20 05:10:44;;;;;;;23.10;10.63;;;14.70;99.90;;;;;;5053701;28;20017;-60
2022/08/20 05:13:10;;;;;;;23.55;10.93;;;14.60;99.90;;;;;;5053544;28;20086;-60
2022/08/20 05:15:37;;;;;;;18.42;10.82;;;14.50;99.90;;;;;;5053808;28;20430;-60
2022/08/20 05:18:06;;;;;;;17.90;10.40;;;14.50;99.90;;;;;;5053851;28;20040;-60
2022/08/20 05:20:34;;;;;;;22.55;10.75;;;14.50;99.90;;;;;;5053236;28;20436;-60
2022/08/20 05:23:01;;;;;;;20.48;10.73;;;14.60;99.90;;;;;;5052255;28;20147;-60
2022/08/20 05:25:28;;;;;;;18.52;9.63;;;14.60;99.90;;;;;;5053542;28;20029;-60
2022/08/20 05:28:08;;;;;;;23.55;10.00;;;14.70;99.90;;;;;;5053469;28;20406;-61
2022/08/20 05:30:34;;;;;;;24.83;10.40;;;14.70;99.90;;;;;;5053450;28;20094;-59
2022/08/20 05:33:02;;;;;;;19.00;9.63;;;14.80;99.90;;;;;;5053197;28;20029;-59
2022/08/20 05:35:28;;;;;;;25.50;10.52;;;15.00;99.90;;;;;;5052660;28;20048;-60
2022/08/20 05:37:56;;;;;;;27.80;11.38;;;15.10;99.90;;;;;;5051745;28;20036;-59
2022/08/20 05:40:22;;;;;;;29.05;10.88;;;15.20;99.90;;;;;;5051965;28;20025;-61
2022/08/20 05:42:49;;;;;;;30.10;11.10;;;15.40;99.90;;;;;;5052487;28;20033;-61
2022/08/20 05:45:17;;;;;;;27.40;11.45;;;15.60;99.90;;;;;;5052578;28;20025;-61
2022/08/20 05:47:43;;;;;;;22.08;11.13;;;15.70;99.90;;;;;;5052528;28;20025;-60
2022/08/20 05:50:11;;;;;;;24.35;10.55;;;15.90;99.90;;;;;;5052607;28;20021;-60
2022/08/20 05:52:38;;;;;;;32.33;10.65;;;16.00;99.90;;;;;;5051148;28;20025;-61
2022/08/20 05:55:06;;;;;;;35.08;10.98;;;16.00;99.90;;;;;;5052558;28;20032;-60
2022/08/20 05:57:33;;;;;;;26.30;9.85;;;16.10;99.90;;;;;;5052303;28;20112;-61
2022/08/20 06:00:03;;;;;;;27.50;10.18;;;16.30;99.90;;;;;;5052239;28;20090;-61
2022/08/20 06:05:14;;;;;;;31.05;10.20;;;16.50;99.90;;;;;;5052132;28;20036;-61
2022/08/20 06:07:39;;;;;;;27.23;9.57;;;16.50;99.90;;;;;;5052411;28;20040;-61
2022/08/20 06:10:07;;;;;;;21.08;8.93;;;16.50;99.90;;;;;;5052139;28;20017;-60
2022/08/20 06:12:33;;;;;;;29.42;9.88;;;16.60;99.90;;;;;;5052382;28;20956;-60
2022/08/20 06:14:59;;;;;;;24.17;9.68;;;16.90;99.90;;;;;;5052227;28;20135;-61
2022/08/20 06:17:24;;;;;;;19.10;9.05;;;17.00;99.90;;;;;;5052142;28;20470;-61
2022/08/20 06:19:50;;;;;;;20.35;8.70;;;17.00;99.90;;;;;;5051034;28;20447;-61
2022/08/20 06:22:16;;;;;;;19.02;8.88;;;17.10;99.90;;;;;;5051713;28;20029;-62
2022/08/20 06:24:42;;;;;;;21.42;8.30;;;17.30;99.90;;;;;;5051899;28;20025;-61
2022/08/20 06:27:11;;;;;;;19.27;8.48;;;17.50;99.90;;;;;;5051834;28;20078;-61
2022/08/20 06:29:37;;;;;;;21.63;8.13;;;17.60;99.90;;;;;;5052161;28;20116;-61
2022/08/20 06:32:03;;;;;;;19.15;8.25;;;17.60;99.90;;;;;;5051710;28;20112;-62
2022/08/20 06:34:28;;;;;;;22.25;8.60;;;17.60;99.90;;;;;;5051762;28;20029;-60
2022/08/20 06:36:55;;;;;;;22.35;8.98;;;17.50;99.90;;;;;;5051484;28;20068;-59
2022/08/20 06:39:22;;;;;;;24.67;9.00;;;17.50;99.90;;;;;;5051738;28;20053;-59
2022/08/20 06:41:48;;;;;;;24.88;8.43;;;17.50;99.90;;;;;;5050369;28;20036;-59
2022/08/20 06:44:14;;;;;;;23.45;8.45;;;17.50;99.90;;;;;;5051820;28;20025;-61
2022/08/20 06:46:42;;;;;;;22.38;9.35;;;17.60;99.90;;;;;;5051301;28;20029;-61
2022/08/20 06:49:07;;;;;;;18.95;8.25;;;17.70;99.90;;;;;;5051590;28;20021;-61
2022/08/20 06:51:36;;;;;;;18.38;8.70;;;17.90;99.90;;;;;;5051060;28;20025;-61
2022/08/20 06:54:02;;;;;;;21.38;8.57;;;18.10;99.90;;;;;;5051259;28;20562;-61
2022/08/20 06:56:28;;;;;;;20.40;8.70;;;18.20;99.90;;;;;;5051646;28;20024;-65
2022/08/20 06:58:54;;;;;;;19.05;8.60;;;18.40;99.90;;;;;;5051009;28;20052;-60
2022/08/20 07:01:20;;;;;;;18.27;8.13;;;18.50;99.90;;;;;;5051213;28;20025;-60
2022/08/20 07:03:48;;;;;;;19.85;8.55;;;18.70;99.90;;;;;;5051046;28;20044;-60
2022/08/20 07:06:15;;;;;;;20.45;8.30;;;18.70;99.90;;;;;;5051353;28;20025;-60
2022/08/20 07:08:42;;;;;;;22.67;8.82;;;18.90;99.90;;;;;;5051400;28;20104;-60
2022/08/20 07:11:08;;;;;;;22.40;8.98;;;18.90;99.90;;;;;;5050919;28;20029;-61
2022/08/20 07:13:37;;;;;;;21.92;8.23;;;19.00;99.90;;;;;;5051164;28;20032;-61
2022/08/20 07:16:04;;;;;;;20.02;8.25;;;19.00;99.90;;;;;;5050982;28;20029;-61
2022/08/20 07:18:30;;;;;;;21.35;7.72;;;19.10;99.90;;;;;;5051247;28;20044;-62
2022/08/20 07:20:56;;;;;;;13.82;6.65;;;19.60;99.90;;;;;;5051135;28;20039;-62
2022/08/20 07:23:23;;;;;;;16.92;6.10;;;20.50;99.90;;;;;;5050684;28;20029;-63
2022/08/20 07:25:49;;;;;;;16.35;6.07;;;21.50;99.90;;;;;;5050759;28;20468;-63
2022/08/20 07:28:19;;;;;;;16.67;5.63;;;22.10;99.90;;;;;;5050901;28;20047;-62
2022/08/20 07:33:30;;;;;;;14.45;5.30;;;23.60;99.90;;;;;;5051115;28;20051;-62
2022/08/20 07:35:58;;;;;;;14.25;4.93;;;24.00;99.90;;;;;;5050524;28;20424;-62
2022/08/20 07:38:25;;;;;;;13.25;5.20;;;23.90;99.90;;;;;;5050923;28;20032;-62
2022/08/20 07:40:53;;;;;;;14.43;5.18;;;23.30;99.90;;;;;;5050812;28;20028;-62
2022/08/20 07:43:22;;;;;;;13.38;5.32;;;23.30;99.90;;;;;;5049112;28;20036;-63
2022/08/20 07:45:48;;;;;;;12.15;4.47;;;23.70;99.90;;;;;;5050592;28;20013;-64
2022/08/20 07:48:14;;;;;;;12.27;4.57;;;24.70;99.90;;;;;;5050882;28;20088;-63
2022/08/20 07:50:40;;;;;;;12.73;4.38;;;25.30;99.90;;;;;;5049282;28;20439;-64
2022/08/20 07:53:06;;;;;;;10.10;4.88;;;25.70;99.90;;;;;;5050759;28;20037;-63
2022/08/20 07:55:32;;;;;;;13.82;4.43;;;25.90;99.90;;;;;;5050518;28;20043;-63
2022/08/20 07:58:06;;;;;;;11.10;4.47;;;25.90;99.90;;;;;;5050642;28;20029;-63
2022/08/20 08:00:32;;;;;;;17.88;4.68;;;25.30;99.90;;;;;;5050572;28;20041;-64
2022/08/20 08:02:58;;;;;;;10.77;4.20;;;24.60;99.90;;;;;;5052679;28;20116;-63
2022/08/20 08:05:25;;;;;;;13.73;4.63;;;25.10;99.90;;;;;;5054381;28;20021;-63
2022/08/20 08:07:50;;;;;;;10.50;4.40;;;25.00;99.90;;;;;;5054539;28;20044;-64
2022/08/20 08:10:20;;;;;;;14.40;4.05;;;25.60;99.90;;;;;;5054822;28;20021;-63
2022/08/20 08:12:52;;;;;;;14.43;3.92;;;26.50;99.90;;;;;;5053248;28;20486;-64
2022/08/20 08:15:23;;;;;;;11.10;3.90;;;27.60;99.90;;;;;;5054177;28;20029;-64
2022/08/20 08:17:51;;;;;;;10.47;3.17;;;28.20;99.90;;;;;;5054770;28;20028;-64
2022/08/20 08:20:19;;;;;;;10.48;3.30;;;28.10;99.90;;;;;;5054512;28;20023;-64
2022/08/20 08:22:44;;;;;;;10.23;3.35;;;27.70;99.90;;;;;;5053919;28;20151;-64
2022/08/20 08:25:12;;;;;;;11.35;3.08;;;27.70;99.90;;;;;;5053013;28;20119;-63
2022/08/20 08:27:39;;;;;;;11.02;3.47;;;27.70;99.90;;;;;;5054092;28;20040;-62
2022/08/20 08:30:06;;;;;;;12.00;3.58;;;27.80;99.90;;;;;;5054123;28;20033;-62
2022/08/20 08:32:31;;;;;;;10.07;2.85;;;28.20;99.90;;;;;;5054072;28;20025;-63
2022/08/20 08:35:02;;;;;;;10.07;2.83;;;27.80;99.90;;;;;;5053994;28;20029;-62
2022/08/20 08:37:27;;;;;;;11.32;3.50;;;28.50;99.90;;;;;;5054079;28;20128;-63
2022/08/20 08:39:53;;;;;;;9.07;2.90;;;29.20;99.90;;;;;;5054038;28;20056;-63
2022/08/20 08:42:43;;;;;;;11.93;3.30;;;29.60;99.90;;;;;;5054042;28;20032;-65
2022/08/20 08:45:11;;;;;;;10.52;3.80;;;29.60;98.90;;;;;;5052713;28;20103;-64
2022/08/20 08:47:38;;;;;;;12.75;3.35;;;28.80;99.90;;;;;;5053822;28;20037;-63
2022/08/20 08:50:21;;;;;;;10.13;3.33;;;27.90;99.90;;;;;;5053794;28;20029;-63
2022/08/20 08:52:52;;;;;;;11.40;3.20;;;27.60;99.90;;;;;;5053569;28;20028;-63
2022/08/20 08:55:20;;;;;;;9.70;2.92;;;27.70;99.90;;;;;;5053697;28;20386;-63
2022/08/20 08:57:48;;;;;;;14.82;3.00;;;28.00;99.90;;;;;;5053783;28;20036;-63
2022/08/20 09:00:20;;;;;;;7.53;2.88;;;27.60;99.90;;;;;;5052302;28;20048;-63
2022/08/20 09:03:07;;;;;;;11.98;3.00;;;27.50;99.90;;;;;;5053373;28;20028;-63
2022/08/20 09:05:49;;;;;;;7.82;2.78;;;27.90;97.20;;;;;;5053464;28;20437;-63
2022/08/20 09:08:18;;;;;;;8.90;3.35;;;27.80;98.90;;;;;;5052479;28;20378;-64
2022/08/20 09:10:45;;;;;;;14.90;3.55;;;27.60;99.80;;;;;;5053289;28;20021;-64
2022/08/20 09:13:11;;;;;;;11.10;3.10;;;27.20;99.90;;;;;;5052359;28;20087;-66
2022/08/20 09:15:37;;;;;;;11.18;3.40;;;27.40;99.90;;;;;;5052669;28;20096;-64
2022/08/20 09:18:03;;;;;;;10.35;3.15;;;28.00;99.90;;;;;;5053209;28;20040;-64
2022/08/20 09:20:29;;;;;;;9.13;3.00;;;28.20;98.80;;;;;;5051896;28;20478;-63
2022/08/20 09:22:54;;;;;;;10.43;3.03;;;28.30;99.00;;;;;;5052940;28;20123;-63
2022/08/20 09:25:20;;;;;;;10.77;3.28;;;28.40;98.40;;;;;;5051681;28;20035;-63
2022/08/20 09:27:46;;;;;;;9.60;3.00;;;28.60;96.20;;;;;;5053037;28;20028;-63
2022/08/20 09:30:14;;;;;;;11.10;3.15;;;28.70;94.70;;;;;;5052717;28;20051;-64
2022/08/20 09:32:40;;;;;;;7.97;2.78;;;27.30;96.80;;;;;;5051564;28;20485;-63
2022/08/20 09:35:06;;;;;;;7.63;2.47;;;26.90;99.20;;;;;;5052787;28;20021;-64
2022/08/20 09:37:32;;;;;;;8.43;3.08;;;27.10;99.30;;;;;;5052653;28;20059;-64
2022/08/20 09:39:58;;;;;;;10.48;2.33;;;28.00;98.50;;;;;;5052827;28;20375;-64
2022/08/20 09:42:33;;;;;;;13.80;2.15;;;28.30;93.70;;;;;;5052530;28;20371;-65
2022/08/20 09:45:00;;;;;;;10.13;2.42;;;27.90;94.10;;;;;;5052672;28;20155;-64
2022/08/20 09:47:26;;;;;;;9.85;2.85;;;28.50;91.40;;;;;;5052627;28;20619;-64
2022/08/20 09:49:52;;;;;;;8.68;2.72;;;28.20;90.70;;;;;;5052032;28;20474;-64
2022/08/20 09:52:43;;;;;;;9.50;2.40;;;27.70;90.40;;;;;;5052435;28;20243;-63
2022/08/20 09:55:50;;;;;;;10.90;2.47;;;26.10;94.20;;;;;;5047687;28;20110;-64
2022/08/20 09:58:31;;;;;;;7.15;2.20;;;26.70;93.80;;;;;;5010400;28;20029;-64
2022/08/20 10:01:04;;;;;;;7.68;2.60;;;27.20;92.70;;;;;;5010408;28;20456;-64
2022/08/20 10:03:30;;;;;;;7.03;2.03;;;27.70;91.60;;;;;;5037263;28;20065;-63
2022/08/20 10:05:55;;;;;;;9.30;2.30;;;27.60;90.60;;;;;;5052119;28;20032;-64
2022/08/20 10:08:21;;;;;;;8.77;2.50;;;27.70;90.80;;;;;;5052884;28;20534;-64
2022/08/20 10:10:47;;;;;;;10.68;2.17;;;28.70;89.50;;;;;;5052553;28;20496;-65
2022/08/20 10:13:12;;;;;;;9.10;2.60;;;29.60;86.40;;;;;;5052015;28;20162;-64
2022/08/20 10:15:38;;;;;;;9.23;2.20;;;29.70;83.50;;;;;;5052094;28;20029;-63
2022/08/20 10:18:06;;;;;;;8.57;2.63;;;27.80;87.00;;;;;;5052122;28;20032;-63
2022/08/20 10:20:33;;;;;;;11.70;3.03;;;26.30;91.70;;;;;;5051855;28;20020;-63
2022/08/20 10:22:59;;;;;;;11.82;2.95;;;26.00;93.60;;;;;;5052174;28;20021;-64
2022/08/20 10:25:25;;;;;;;10.88;2.45;;;26.00;93.50;;;;;;5051647;28;20075;-63
2022/08/20 10:27:50;;;;;;;8.20;2.13;;;26.70;92.60;;;;;;5050633;28;20033;-64
2022/08/20 10:30:16;;;;;;;9.38;2.20;;;27.80;90.50;;;;;;5051906;28;20029;-64
2022/08/20 10:32:42;;;;;;;7.82;2.13;;;27.30;89.00;;;;;;5051545;28;20039;-64
2022/08/20 10:35:08;;;;;;;8.85;2.50;;;27.60;90.30;;;;;;5051666;28;20063;-63
2022/08/20 10:37:35;;;;;;;10.93;2.47;;;26.60;91.00;;;;;;5051519;28;20033;-64
2022/08/20 10:40:01;;;;;;;6.68;2.03;;;26.30;91.00;;;;;;5051794;28;20036;-67
2022/08/20 10:42:26;;;;;;;9.30;2.58;;;25.50;93.00;;;;;;5050512;28;20033;-62
2022/08/20 10:44:52;;;;;;;8.00;2.15;;;25.00;94.60;;;;;;5051305;28;20017;-63
2022/08/20 10:47:23;;;;;;;8.10;1.90;;;25.50;93.80;;;;;;5051587;28;20124;-63
2022/08/20 10:49:51;;;;;;;8.32;2.10;;;26.00;93.30;;;;;;5051941;28;20096;-63
2022/08/20 10:52:17;;;;;;;7.28;2.38;;;26.10;92.00;;;;;;5052234;28;20033;-64
2022/08/20 10:54:42;;;;;;;9.30;2.33;;;26.80;90.30;;;;;;5051326;28;20158;-64
2022/08/20 10:57:14;;;;;;;5.20;1.60;;;26.20;90.00;;;;;;5051237;28;20029;-64
2022/08/20 10:59:42;;;;;;;6.20;1.60;;;26.10;90.10;;;;;;5051212;28;20063;-64
2022/08/20 11:02:08;;;;;;;6.65;1.80;;;26.10;90.00;;;;;;5049692;28;20037;-63
2022/08/20 11:04:34;;;;;;;5.60;1.70;;;26.30;90.20;;;;;;5051330;28;20144;-63
2022/08/20 11:07:15;;;;;;;4.65;1.40;;;27.30;87.70;;;;;;5050990;28;20106;-63
2022/08/20 11:09:42;;;;;;;6.72;1.70;;;26.90;88.50;;;;;;5050629;28;20438;-64
2022/08/20 11:12:08;;;;;;;7.15;1.65;;;26.90;87.30;;;;;;5050413;28;20035;-65
2022/08/20 11:14:34;;;;;;;5.95;1.90;;;27.70;84.40;;;;;;5051229;28;20099;-63
2022/08/20 11:17:01;;;;;;;4.90;1.63;;;27.70;83.90;;;;;;5051190;28;20043;-64
2022/08/20 11:19:26;;;;;;;6.28;1.90;;;27.30;84.60;;;;;;5051290;28;20071;-64
2022/08/20 11:21:52;;;;;;;7.03;1.63;;;27.50;83.40;;;;;;5050974;28;20040;-64
2022/08/20 11:24:18;;;;;;;6.85;1.55;;;26.60;83.60;;;;;;5050756;28;20389;-64
2022/08/20 11:26:46;;;;;;;6.80;1.70;;;26.50;83.10;;;;;;5051207;28;20092;-65
2022/08/20 11:29:12;;;;;;;4.20;1.27;;;26.90;84.10;;;;;;5051029;28;20112;-65
2022/08/20 11:31:38;;;;;;;6.43;1.52;;;27.80;80.80;;;;;;5050656;28;20096;-64
2022/08/20 11:34:03;;;;;;;4.38;1.40;;;28.10;79.10;;;;;;5050859;28;20036;-65
2022/08/20 11:36:30;;;;;;;3.25;1.25;;;28.20;79.70;;;;;;5048665;28;20021;-65
2022/08/20 11:38:56;;;;;;;3.40;1.45;;;28.50;76.90;;;;;;5050662;28;20036;-65
2022/08/20 11:41:21;;;;;;;4.82;1.50;;;28.00;77.50;;;;;;5050807;28;20478;-63
2022/08/20 11:43:47;;;;;;;5.55;1.60;;;27.80;79.30;;;;;;5050464;28;20025;-63
2022/08/20 11:46:12;;;;;;;4.20;1.33;;;28.10;77.50;;;;;;5050520;28;20592;-63
2022/08/20 11:48:41;;;;;;;5.82;1.45;;;28.10;77.70;;;;;;5050905;28;20033;-63
2022/08/20 11:51:07;;;;;;;6.35;1.55;;;28.10;75.80;;;;;;5050464;28;20115;-64
2022/08/20 11:53:32;;;;;;;5.70;1.60;;;28.30;74.80;;;;;;5050689;28;20059;-64
2022/08/20 11:55:58;;;;;;;3.95;1.55;;;29.10;75.20;;;;;;5050372;28;20025;-64
2022/08/20 11:58:33;;;;;;;3.72;1.27;;;29.00;74.10;;;;;;5050509;28;20040;-64
2022/08/20 12:00:58;;;;;;;3.25;1.48;;;28.70;75.20;;;;;;5050651;28;20033;-64
2022/08/20 12:03:24;;;;;;;6.95;1.77;;;28.10;76.50;;;;;;5050277;28;20032;-64
2022/08/20 12:05:50;;;;;;;4.57;1.40;;;28.70;75.80;;;;;;5050206;28;20033;-64
2022/08/20 12:08:16;;;;;;;7.32;1.75;;;28.50;73.70;;;;;;5049263;28;20390;-65
2022/08/20 12:10:42;;;;;;;3.90;1.38;;;29.00;74.90;;;;;;5050328;28;20029;-65
2022/08/20 12:13:07;;;;;;;6.63;1.85;;;29.70;74.20;;;;;;5050388;28;20604;-64
2022/08/20 12:15:35;;;;;;;3.55;1.40;;;30.30;72.30;;;;;;5050488;28;20121;-65
2022/08/20 12:18:05;;;;;;;4.03;1.60;;;30.20;71.50;;;;;;5050570;28;20126;-64
2022/08/20 12:20:31;;;;;;;7.00;1.60;;;28.70;74.00;;;;;;5050108;28;20156;-64
2022/08/20 12:22:57;;;;;;;7.32;1.52;;;28.40;76.00;;;;;;5050573;28;20119;-64
2022/08/20 12:25:23;;;;;;;4.00;1.52;;;29.70;72.90;;;;;;5050135;28;20024;-64
2022/08/20 12:27:49;;;;;;;6.43;1.60;;;31.10;67.80;;;;;;5050601;28;20585;-65
2022/08/20 12:30:18;;;;;;;4.53;1.50;;;31.90;65.10;;;;;;5050667;28;20032;-64
2022/08/20 12:32:44;;;;;;;4.15;1.48;;;30.50;67.90;;;;;;5050073;28;20039;-64
2022/08/20 12:35:12;;;;;;;4.13;1.60;;;31.00;68.30;;;;;;5050112;28;20044;-64
2022/08/20 12:37:38;;;;;;;4.95;1.40;;;32.50;65.70;;;;;;5050196;28;20032;-65
2022/08/20 12:40:07;;;;;;;5.95;1.83;;;32.70;63.50;;;;;;5050529;28;20025;-65
2022/08/20 12:42:33;;;;;;;3.95;1.30;;;31.60;64.50;;;;;;5050473;28;20121;-65
2022/08/20 12:45:00;;;;;;;5.63;1.40;;;31.90;64.50;;;;;;5050264;28;20510;-65
2022/08/20 12:47:31;;;;;;;4.93;1.65;;;32.10;63.20;;;;;;5050170;28;20033;-64